sensor_id;sensor_type;location;lat;lon;timestamp;P1;durP1;ratioP1;P2;durP2;ratioP2
8702;SDS011;9002;42.708;23.186;2024-03-25T00:03:55;0.98;;;0.63;;
8702;SDS011;9002;42.708;23.186;2024-03-25T00:06:22;1.85;;;0.38;;
8702;SDS011;9002;42.708;23.186;2024-03-25T00:08:49;0.73;;;0.45;;
8702;SDS011;9002;42.708;23.186;2024-03-25T00:13:55;0.52;;;0.45;;
8702;SDS011;9002;42.708;23.186;2024-03-25T00:18:47;0.77;;;0.40;;
8702;SDS011;9002;42.708;23.186;2024-03-25T00:21:14;0.65;;;0.50;;
8702;SDS011;9002;42.708;23.186;2024-03-25T00:23:40;0.68;;;0.68;;
8702;SDS011;9002;42.708;23.186;2024-03-25T00:26:09;1.75;;;0.57;;
8702;SDS011;9002;42.708;23.186;2024-03-25T00:28:35;1.83;;;0.43;;
8702;SDS011;9002;42.708;23.186;2024-03-25T00:31:02;2.83;;;0.47;;
8702;SDS011;9002;42.708;23.186;2024-03-25T00:33:28;1.10;;;0.82;;
8702;SDS011;9002;42.708;23.186;2024-03-25T00:36:01;1.95;;;0.40;;
8702;SDS011;9002;42.708;23.186;2024-03-25T00:38:27;1.13;;;0.50;;
8702;SDS011;9002;42.708;23.186;2024-03-25T00:40:54;1.75;;;0.70;;
8702;SDS011;9002;42.708;23.186;2024-03-25T00:43:21;1.25;;;0.80;;
8702;SDS011;9002;42.708;23.186;2024-03-25T00:45:48;2.22;;;1.02;;
8702;SDS011;9002;42.708;23.186;2024-03-25T00:48:14;0.80;;;0.30;;
8702;SDS011;9002;42.708;23.186;2024-03-25T00:50:41;0.30;;;0.20;;
8702;SDS011;9002;42.708;23.186;2024-03-25T00:53:07;1.65;;;0.22;;
8702;SDS011;9002;42.708;23.186;2024-03-25T00:55:34;0.68;;;0.55;;
8702;SDS011;9002;42.708;23.186;2024-03-25T00:58:02;0.40;;;0.20;;
8702;SDS011;9002;42.708;23.186;2024-03-25T01:00:30;0.75;;;0.43;;
8702;SDS011;9002;42.708;23.186;2024-03-25T01:02:56;0.40;;;0.40;;
8702;SDS011;9002;42.708;23.186;2024-03-25T01:05:23;0.20;;;0.20;;
8702;SDS011;9002;42.708;23.186;2024-03-25T01:07:49;0.70;;;0.35;;
8702;SDS011;9002;42.708;23.186;2024-03-25T01:10:16;0.50;;;0.20;;
8702;SDS011;9002;42.708;23.186;2024-03-25T01:12:42;0.70;;;0.40;;
8702;SDS011;9002;42.708;23.186;2024-03-25T01:15:09;0.30;;;0.10;;
8702;SDS011;9002;42.708;23.186;2024-03-25T01:17:37;0.20;;;0.20;;
8702;SDS011;9002;42.708;23.186;2024-03-25T01:20:04;1.00;;;1.00;;
8702;SDS011;9002;42.708;23.186;2024-03-25T01:22:30;0.25;;;0.13;;
8702;SDS011;9002;42.708;23.186;2024-03-25T01:24:57;0.22;;;0.20;;
8702;SDS011;9002;42.708;23.186;2024-03-25T01:27:23;0.43;;;0.38;;
8702;SDS011;9002;42.708;23.186;2024-03-25T01:32:16;0.57;;;0.20;;
8702;SDS011;9002;42.708;23.186;2024-03-25T01:37:10;1.00;;;0.47;;
8702;SDS011;9002;42.708;23.186;2024-03-25T01:42:04;1.30;;;0.57;;
8702;SDS011;9002;42.708;23.186;2024-03-25T01:44:31;0.60;;;0.30;;
8702;SDS011;9002;42.708;23.186;2024-03-25T01:46:57;0.93;;;0.50;;
8702;SDS011;9002;42.708;23.186;2024-03-25T01:49:24;0.50;;;0.30;;
8702;SDS011;9002;42.708;23.186;2024-03-25T01:51:52;0.43;;;0.43;;
8702;SDS011;9002;42.708;23.186;2024-03-25T01:54:19;0.65;;;0.65;;
8702;SDS011;9002;42.708;23.186;2024-03-25T01:56:45;0.73;;;0.60;;
8702;SDS011;9002;42.708;23.186;2024-03-25T01:59:13;0.32;;;0.22;;
8702;SDS011;9002;42.708;23.186;2024-03-25T02:01:41;0.50;;;0.25;;
8702;SDS011;9002;42.708;23.186;2024-03-25T02:04:10;0.88;;;0.30;;
8702;SDS011;9002;42.708;23.186;2024-03-25T02:06:37;0.50;;;0.50;;
8702;SDS011;9002;42.708;23.186;2024-03-25T02:09:08;0.40;;;0.25;;
8702;SDS011;9002;42.708;23.186;2024-03-25T02:11:35;0.73;;;0.73;;
8702;SDS011;9002;42.708;23.186;2024-03-25T02:14:03;0.22;;;0.22;;
8702;SDS011;9002;42.708;23.186;2024-03-25T02:16:30;0.20;;;0.20;;
8702;SDS011;9002;42.708;23.186;2024-03-25T02:18:57;0.50;;;0.20;;
8702;SDS011;9002;42.708;23.186;2024-03-25T02:21:23;0.65;;;0.30;;
8702;SDS011;9002;42.708;23.186;2024-03-25T02:23:49;0.55;;;0.30;;
8702;SDS011;9002;42.708;23.186;2024-03-25T02:26:23;1.10;;;0.65;;
8702;SDS011;9002;42.708;23.186;2024-03-25T02:28:50;0.43;;;0.40;;
8702;SDS011;9002;42.708;23.186;2024-03-25T02:31:16;0.80;;;0.52;;
8702;SDS011;9002;42.708;23.186;2024-03-25T02:33:43;1.05;;;0.40;;
8702;SDS011;9002;42.708;23.186;2024-03-25T02:36:09;0.43;;;0.40;;
8702;SDS011;9002;42.708;23.186;2024-03-25T02:38:36;0.65;;;0.63;;
8702;SDS011;9002;42.708;23.186;2024-03-25T02:41:03;0.80;;;0.80;;
8702;SDS011;9002;42.708;23.186;2024-03-25T02:43:31;0.20;;;0.20;;
8702;SDS011;9002;42.708;23.186;2024-03-25T02:45:59;0.30;;;0.30;;
8702;SDS011;9002;42.708;23.186;2024-03-25T02:48:26;0.60;;;0.40;;
8702;SDS011;9002;42.708;23.186;2024-03-25T02:50:52;0.45;;;0.45;;
8702;SDS011;9002;42.708;23.186;2024-03-25T02:53:19;0.32;;;0.30;;
8702;SDS011;9002;42.708;23.186;2024-03-25T02:55:45;0.60;;;0.40;;
8702;SDS011;9002;42.708;23.186;2024-03-25T02:58:12;1.00;;;0.88;;
8702;SDS011;9002;42.708;23.186;2024-03-25T03:00:42;1.23;;;0.40;;
8702;SDS011;9002;42.708;23.186;2024-03-25T03:03:09;0.98;;;0.30;;
8702;SDS011;9002;42.708;23.186;2024-03-25T03:05:35;0.98;;;0.30;;
8702;SDS011;9002;42.708;23.186;2024-03-25T03:08:02;0.80;;;0.60;;
8702;SDS011;9002;42.708;23.186;2024-03-25T03:10:28;0.93;;;0.35;;
8702;SDS011;9002;42.708;23.186;2024-03-25T03:12:55;0.68;;;0.63;;
8702;SDS011;9002;42.708;23.186;2024-03-25T03:15:21;1.33;;;0.68;;
8702;SDS011;9002;42.708;23.186;2024-03-25T03:20:15;0.68;;;0.40;;
8702;SDS011;9002;42.708;23.186;2024-03-25T03:22:42;1.30;;;0.68;;
8702;SDS011;9002;42.708;23.186;2024-03-25T03:25:10;0.52;;;0.43;;
8702;SDS011;9002;42.708;23.186;2024-03-25T03:27:37;0.63;;;0.40;;
8702;SDS011;9002;42.708;23.186;2024-03-25T03:30:03;1.40;;;0.98;;
8702;SDS011;9002;42.708;23.186;2024-03-25T03:32:31;1.08;;;1.02;;
8702;SDS011;9002;42.708;23.186;2024-03-25T03:34:58;1.17;;;0.63;;
8702;SDS011;9002;42.708;23.186;2024-03-25T03:37:25;1.25;;;0.50;;
8702;SDS011;9002;42.708;23.186;2024-03-25T03:39:51;1.35;;;0.63;;
8702;SDS011;9002;42.708;23.186;2024-03-25T03:42:18;1.33;;;0.63;;
8702;SDS011;9002;42.708;23.186;2024-03-25T03:44:44;1.48;;;1.27;;
8702;SDS011;9002;42.708;23.186;2024-03-25T03:47:11;1.45;;;0.60;;
8702;SDS011;9002;42.708;23.186;2024-03-25T03:49:37;1.15;;;0.43;;
8702;SDS011;9002;42.708;23.186;2024-03-25T03:52:05;1.73;;;0.50;;
8702;SDS011;9002;42.708;23.186;2024-03-25T03:54:31;1.77;;;0.85;;
8702;SDS011;9002;42.708;23.186;2024-03-25T03:56:58;1.23;;;0.85;;
8702;SDS011;9002;42.708;23.186;2024-03-25T03:59:25;1.77;;;0.60;;
8702;SDS011;9002;42.708;23.186;2024-03-25T04:01:52;2.80;;;0.88;;
8702;SDS011;9002;42.708;23.186;2024-03-25T04:04:18;2.13;;;1.52;;
8702;SDS011;9002;42.708;23.186;2024-03-25T04:06:45;1.38;;;0.68;;
8702;SDS011;9002;42.708;23.186;2024-03-25T04:09:13;1.73;;;0.52;;
8702;SDS011;9002;42.708;23.186;2024-03-25T04:11:41;1.05;;;0.73;;
8702;SDS011;9002;42.708;23.186;2024-03-25T04:14:07;1.58;;;1.05;;
8702;SDS011;9002;42.708;23.186;2024-03-25T04:16:34;2.03;;;0.80;;
8702;SDS011;9002;42.708;23.186;2024-03-25T04:19:00;1.88;;;1.17;;
8702;SDS011;9002;42.708;23.186;2024-03-25T04:21:29;2.30;;;1.48;;
8702;SDS011;9002;42.708;23.186;2024-03-25T04:23:56;1.90;;;0.80;;
8702;SDS011;9002;42.708;23.186;2024-03-25T04:26:31;1.92;;;1.27;;
8702;SDS011;9002;42.708;23.186;2024-03-25T04:29:00;2.58;;;1.45;;
8702;SDS011;9002;42.708;23.186;2024-03-25T04:31:27;4.00;;;1.85;;
8702;SDS011;9002;42.708;23.186;2024-03-25T04:33:53;3.22;;;1.13;;
8702;SDS011;9002;42.708;23.186;2024-03-25T04:36:29;3.20;;;1.58;;
8702;SDS011;9002;42.708;23.186;2024-03-25T04:38:58;2.90;;;1.70;;
8702;SDS011;9002;42.708;23.186;2024-03-25T04:42:14;4.57;;;2.35;;
8702;SDS011;9002;42.708;23.186;2024-03-25T04:44:42;3.63;;;1.95;;
8702;SDS011;9002;42.708;23.186;2024-03-25T04:49:47;5.78;;;3.47;;
8702;SDS011;9002;42.708;23.186;2024-03-25T04:52:13;7.28;;;3.17;;
8702;SDS011;9002;42.708;23.186;2024-03-25T04:54:41;5.43;;;3.38;;
8702;SDS011;9002;42.708;23.186;2024-03-25T04:57:09;7.70;;;4.03;;
8702;SDS011;9002;42.708;23.186;2024-03-25T04:59:35;7.15;;;3.30;;
8702;SDS011;9002;42.708;23.186;2024-03-25T05:02:01;7.28;;;3.85;;
8702;SDS011;9002;42.708;23.186;2024-03-25T05:04:27;6.75;;;3.15;;
8702;SDS011;9002;42.708;23.186;2024-03-25T05:06:53;5.45;;;3.28;;
8702;SDS011;9002;42.708;23.186;2024-03-25T05:09:19;9.63;;;3.80;;
8702;SDS011;9002;42.708;23.186;2024-03-25T05:11:45;7.32;;;4.05;;
8702;SDS011;9002;42.708;23.186;2024-03-25T05:14:13;8.02;;;3.55;;
8702;SDS011;9002;42.708;23.186;2024-03-25T05:16:38;7.47;;;4.32;;
8702;SDS011;9002;42.708;23.186;2024-03-25T05:19:04;6.90;;;3.70;;
8702;SDS011;9002;42.708;23.186;2024-03-25T05:21:31;7.60;;;3.92;;
8702;SDS011;9002;42.708;23.186;2024-03-25T05:23:57;6.78;;;3.78;;
8702;SDS011;9002;42.708;23.186;2024-03-25T05:26:23;7.45;;;3.80;;
8702;SDS011;9002;42.708;23.186;2024-03-25T05:28:52;6.35;;;3.92;;
8702;SDS011;9002;42.708;23.186;2024-03-25T05:31:19;7.60;;;4.25;;
8702;SDS011;9002;42.708;23.186;2024-03-25T05:33:45;6.50;;;3.92;;
8702;SDS011;9002;42.708;23.186;2024-03-25T05:36:11;8.85;;;4.28;;
8702;SDS011;9002;42.708;23.186;2024-03-25T05:38:40;8.45;;;4.50;;
8702;SDS011;9002;42.708;23.186;2024-03-25T05:41:07;6.25;;;3.63;;
8702;SDS011;9002;42.708;23.186;2024-03-25T05:43:36;9.50;;;4.70;;
8702;SDS011;9002;42.708;23.186;2024-03-25T05:46:02;7.47;;;4.57;;
8702;SDS011;9002;42.708;23.186;2024-03-25T05:48:30;8.02;;;4.47;;
8702;SDS011;9002;42.708;23.186;2024-03-25T05:50:57;8.52;;;4.93;;
8702;SDS011;9002;42.708;23.186;2024-03-25T05:53:26;7.35;;;5.25;;
8702;SDS011;9002;42.708;23.186;2024-03-25T05:55:54;7.07;;;4.65;;
8702;SDS011;9002;42.708;23.186;2024-03-25T05:58:20;9.35;;;5.00;;
8702;SDS011;9002;42.708;23.186;2024-03-25T06:00:46;9.10;;;5.07;;
8702;SDS011;9002;42.708;23.186;2024-03-25T06:03:13;9.35;;;5.28;;
8702;SDS011;9002;42.708;23.186;2024-03-25T06:05:40;8.27;;;4.80;;
8702;SDS011;9002;42.708;23.186;2024-03-25T06:08:07;10.13;;;5.70;;
8702;SDS011;9002;42.708;23.186;2024-03-25T06:10:36;8.10;;;4.55;;
8702;SDS011;9002;42.708;23.186;2024-03-25T06:13:03;8.38;;;4.18;;
8702;SDS011;9002;42.708;23.186;2024-03-25T06:15:29;7.97;;;4.90;;
8702;SDS011;9002;42.708;23.186;2024-03-25T06:17:55;8.90;;;4.80;;
8702;SDS011;9002;42.708;23.186;2024-03-25T06:20:21;9.35;;;6.35;;
8702;SDS011;9002;42.708;23.186;2024-03-25T06:22:48;9.32;;;5.18;;
8702;SDS011;9002;42.708;23.186;2024-03-25T06:25:14;9.07;;;4.97;;
8702;SDS011;9002;42.708;23.186;2024-03-25T07:04:31;8.90;;;5.30;;
8702;SDS011;9002;42.708;23.186;2024-03-25T07:06:57;10.75;;;5.45;;
8702;SDS011;9002;42.708;23.186;2024-03-25T07:09:23;10.27;;;5.70;;
8702;SDS011;9002;42.708;23.186;2024-03-25T07:11:49;9.02;;;4.78;;
8702;SDS011;9002;42.708;23.186;2024-03-25T07:14:15;9.48;;;5.60;;
8702;SDS011;9002;42.708;23.186;2024-03-25T07:16:41;8.48;;;4.88;;
8702;SDS011;9002;42.708;23.186;2024-03-25T07:19:07;10.23;;;5.85;;
8702;SDS011;9002;42.708;23.186;2024-03-25T07:21:34;8.63;;;5.78;;
8702;SDS011;9002;42.708;23.186;2024-03-25T07:24:00;8.57;;;5.28;;
8702;SDS011;9002;42.708;23.186;2024-03-25T07:26:26;9.05;;;5.40;;
8702;SDS011;9002;42.708;23.186;2024-03-25T07:28:52;10.80;;;5.07;;
8702;SDS011;9002;42.708;23.186;2024-03-25T07:31:18;9.15;;;5.35;;
8702;SDS011;9002;42.708;23.186;2024-03-25T07:36:10;7.38;;;4.47;;
8702;SDS011;9002;42.708;23.186;2024-03-25T07:38:38;7.78;;;4.60;;
8702;SDS011;9002;42.708;23.186;2024-03-25T07:41:04;12.32;;;5.05;;
8702;SDS011;9002;42.708;23.186;2024-03-25T07:43:30;8.88;;;4.88;;
8702;SDS011;9002;42.708;23.186;2024-03-25T07:45:56;8.80;;;5.03;;
8702;SDS011;9002;42.708;23.186;2024-03-25T07:48:22;6.90;;;4.75;;
8702;SDS011;9002;42.708;23.186;2024-03-25T07:50:48;8.27;;;6.25;;
8702;SDS011;9002;42.708;23.186;2024-03-25T07:53:14;11.55;;;4.28;;
8702;SDS011;9002;42.708;23.186;2024-03-25T07:55:42;8.77;;;5.22;;
8702;SDS011;9002;42.708;23.186;2024-03-25T07:58:07;10.98;;;4.65;;
8702;SDS011;9002;42.708;23.186;2024-03-25T08:00:33;9.85;;;5.28;;
8702;SDS011;9002;42.708;23.186;2024-03-25T08:02:59;8.00;;;4.53;;
8702;SDS011;9002;42.708;23.186;2024-03-25T08:05:26;7.93;;;4.75;;
8702;SDS011;9002;42.708;23.186;2024-03-25T08:07:52;6.90;;;5.20;;
8702;SDS011;9002;42.708;23.186;2024-03-25T08:10:18;7.65;;;5.30;;
8702;SDS011;9002;42.708;23.186;2024-03-25T08:15:29;5.85;;;3.92;;
8702;SDS011;9002;42.708;23.186;2024-03-25T08:17:55;7.43;;;5.55;;
8702;SDS011;9002;42.708;23.186;2024-03-25T08:20:22;8.88;;;5.30;;
8702;SDS011;9002;42.708;23.186;2024-03-25T08:22:48;9.13;;;5.13;;
8702;SDS011;9002;42.708;23.186;2024-03-25T08:25:14;6.28;;;4.18;;
8702;SDS011;9002;42.708;23.186;2024-03-25T08:27:40;6.88;;;5.20;;
8702;SDS011;9002;42.708;23.186;2024-03-25T08:30:09;9.85;;;4.90;;
8702;SDS011;9002;42.708;23.186;2024-03-25T08:32:36;7.13;;;4.80;;
8702;SDS011;9002;42.708;23.186;2024-03-25T08:35:02;7.53;;;4.85;;
8702;SDS011;9002;42.708;23.186;2024-03-25T08:37:28;6.40;;;4.47;;
8702;SDS011;9002;42.708;23.186;2024-03-25T08:39:54;15.02;;;7.82;;
8702;SDS011;9002;42.708;23.186;2024-03-25T08:42:20;10.50;;;5.85;;
8702;SDS011;9002;42.708;23.186;2024-03-25T08:44:46;29.55;;;13.95;;
8702;SDS011;9002;42.708;23.186;2024-03-25T08:47:14;7.05;;;4.68;;
8702;SDS011;9002;42.708;23.186;2024-03-25T08:49:39;7.85;;;4.88;;
8702;SDS011;9002;42.708;23.186;2024-03-25T08:52:05;8.60;;;5.05;;
8702;SDS011;9002;42.708;23.186;2024-03-25T08:54:31;8.98;;;5.78;;
8702;SDS011;9002;42.708;23.186;2024-03-25T08:56:57;7.15;;;4.68;;
8702;SDS011;9002;42.708;23.186;2024-03-25T08:59:23;7.63;;;4.53;;
8702;SDS011;9002;42.708;23.186;2024-03-25T09:01:49;8.98;;;4.85;;
8702;SDS011;9002;42.708;23.186;2024-03-25T09:04:16;8.80;;;4.45;;
8702;SDS011;9002;42.708;23.186;2024-03-25T09:06:42;7.13;;;4.18;;
8702;SDS011;9002;42.708;23.186;2024-03-25T09:09:10;7.97;;;5.20;;
8702;SDS011;9002;42.708;23.186;2024-03-25T09:11:54;8.10;;;4.40;;
8702;SDS011;9002;42.708;23.186;2024-03-25T09:14:20;5.60;;;4.43;;
8702;SDS011;9002;42.708;23.186;2024-03-25T09:16:51;7.68;;;5.20;;
8702;SDS011;9002;42.708;23.186;2024-03-25T09:19:23;5.80;;;3.78;;
8702;SDS011;9002;42.708;23.186;2024-03-25T09:21:49;7.15;;;4.32;;
8702;SDS011;9002;42.708;23.186;2024-03-25T09:24:16;8.10;;;4.00;;
8702;SDS011;9002;42.708;23.186;2024-03-25T09:26:42;8.15;;;3.92;;
8702;SDS011;9002;42.708;23.186;2024-03-25T09:29:08;6.40;;;4.25;;
8702;SDS011;9002;42.708;23.186;2024-03-25T09:31:34;9.82;;;4.80;;
8702;SDS011;9002;42.708;23.186;2024-03-25T09:34:01;6.65;;;4.00;;
8702;SDS011;9002;42.708;23.186;2024-03-25T09:36:28;10.10;;;5.22;;
8702;SDS011;9002;42.708;23.186;2024-03-25T09:38:54;7.60;;;4.57;;
8702;SDS011;9002;42.708;23.186;2024-03-25T09:41:20;6.05;;;4.05;;
8702;SDS011;9002;42.708;23.186;2024-03-25T09:43:48;6.05;;;3.72;;
8702;SDS011;9002;42.708;23.186;2024-03-25T09:46:18;6.43;;;4.28;;
8702;SDS011;9002;42.708;23.186;2024-03-25T09:48:46;6.60;;;4.40;;
8702;SDS011;9002;42.708;23.186;2024-03-25T09:51:12;6.65;;;3.28;;
8702;SDS011;9002;42.708;23.186;2024-03-25T09:53:47;5.60;;;3.38;;
8702;SDS011;9002;42.708;23.186;2024-03-25T09:56:15;8.05;;;3.75;;
8702;SDS011;9002;42.708;23.186;2024-03-25T09:58:41;6.32;;;3.72;;
8702;SDS011;9002;42.708;23.186;2024-03-25T10:01:09;6.45;;;4.50;;
8702;SDS011;9002;42.708;23.186;2024-03-25T10:03:35;7.13;;;4.18;;
8702;SDS011;9002;42.708;23.186;2024-03-25T10:06:01;4.85;;;3.33;;
8702;SDS011;9002;42.708;23.186;2024-03-25T10:08:28;7.47;;;3.92;;
8702;SDS011;9002;42.708;23.186;2024-03-25T10:10:55;6.80;;;4.50;;
8702;SDS011;9002;42.708;23.186;2024-03-25T10:13:21;7.95;;;3.97;;
8702;SDS011;9002;42.708;23.186;2024-03-25T10:15:47;6.28;;;4.15;;
8702;SDS011;9002;42.708;23.186;2024-03-25T10:18:13;6.28;;;4.03;;
8702;SDS011;9002;42.708;23.186;2024-03-25T10:20:47;5.80;;;4.20;;
8702;SDS011;9002;42.708;23.186;2024-03-25T10:23:13;5.93;;;3.67;;
8702;SDS011;9002;42.708;23.186;2024-03-25T10:25:39;5.85;;;3.05;;
8702;SDS011;9002;42.708;23.186;2024-03-25T10:28:08;6.93;;;3.90;;
8702;SDS011;9002;42.708;23.186;2024-03-25T10:30:34;4.90;;;3.67;;
8702;SDS011;9002;42.708;23.186;2024-03-25T10:33:00;4.45;;;2.50;;
8702;SDS011;9002;42.708;23.186;2024-03-25T10:35:27;4.78;;;2.60;;
8702;SDS011;9002;42.708;23.186;2024-03-25T10:37:58;3.35;;;2.08;;
8702;SDS011;9002;42.708;23.186;2024-03-25T10:40:26;3.78;;;2.88;;
8702;SDS011;9002;42.708;23.186;2024-03-25T10:42:55;3.05;;;2.33;;
8702;SDS011;9002;42.708;23.186;2024-03-25T10:45:28;3.38;;;2.50;;
8702;SDS011;9002;42.708;23.186;2024-03-25T10:47:56;4.40;;;3.53;;
8702;SDS011;9002;42.708;23.186;2024-03-25T10:50:24;5.28;;;2.63;;
8702;SDS011;9002;42.708;23.186;2024-03-25T10:52:54;3.75;;;2.22;;
8702;SDS011;9002;42.708;23.186;2024-03-25T10:55:22;3.83;;;2.95;;
8702;SDS011;9002;42.708;23.186;2024-03-25T10:57:50;4.55;;;2.90;;
8702;SDS011;9002;42.708;23.186;2024-03-25T11:00:17;5.63;;;2.45;;
8702;SDS011;9002;42.708;23.186;2024-03-25T11:02:45;3.55;;;2.40;;
8702;SDS011;9002;42.708;23.186;2024-03-25T11:05:11;4.15;;;2.63;;
8702;SDS011;9002;42.708;23.186;2024-03-25T11:07:38;4.82;;;3.15;;
8702;SDS011;9002;42.708;23.186;2024-03-25T11:10:07;6.38;;;3.08;;
8702;SDS011;9002;42.708;23.186;2024-03-25T11:12:37;3.80;;;2.45;;
8702;SDS011;9002;42.708;23.186;2024-03-25T11:15:06;4.18;;;2.20;;
8702;SDS011;9002;42.708;23.186;2024-03-25T11:17:33;3.30;;;2.55;;
8702;SDS011;9002;42.708;23.186;2024-03-25T11:20:09;3.38;;;2.00;;
8702;SDS011;9002;42.708;23.186;2024-03-25T11:22:36;3.95;;;2.78;;
8702;SDS011;9002;42.708;23.186;2024-03-25T11:25:14;3.83;;;2.40;;
8702;SDS011;9002;42.708;23.186;2024-03-25T11:27:42;3.88;;;2.25;;
8702;SDS011;9002;42.708;23.186;2024-03-25T11:30:09;3.53;;;1.83;;
8702;SDS011;9002;42.708;23.186;2024-03-25T11:35:12;3.15;;;2.38;;
8702;SDS011;9002;42.708;23.186;2024-03-25T11:37:39;3.67;;;2.35;;
8702;SDS011;9002;42.708;23.186;2024-03-25T11:40:06;3.95;;;2.30;;
8702;SDS011;9002;42.708;23.186;2024-03-25T11:42:33;3.15;;;2.10;;
8702;SDS011;9002;42.708;23.186;2024-03-25T11:45:00;3.58;;;2.58;;
8702;SDS011;9002;42.708;23.186;2024-03-25T11:49:52;3.72;;;2.67;;
8702;SDS011;9002;42.708;23.186;2024-03-25T11:52:23;4.65;;;2.33;;
8702;SDS011;9002;42.708;23.186;2024-03-25T11:54:58;4.63;;;2.60;;
8702;SDS011;9002;42.708;23.186;2024-03-25T11:59:57;2.00;;;1.70;;
8702;SDS011;9002;42.708;23.186;2024-03-25T12:02:26;3.35;;;2.10;;
8702;SDS011;9002;42.708;23.186;2024-03-25T12:04:54;4.28;;;2.13;;
8702;SDS011;9002;42.708;23.186;2024-03-25T12:07:20;3.25;;;2.40;;
8702;SDS011;9002;42.708;23.186;2024-03-25T12:09:47;2.03;;;1.30;;
8702;SDS011;9002;42.708;23.186;2024-03-25T12:12:32;3.17;;;2.25;;
8702;SDS011;9002;42.708;23.186;2024-03-25T12:14:58;4.18;;;2.10;;
8702;SDS011;9002;42.708;23.186;2024-03-25T12:17:24;2.88;;;1.77;;
8702;SDS011;9002;42.708;23.186;2024-03-25T12:22:33;3.30;;;2.53;;
8702;SDS011;9002;42.708;23.186;2024-03-25T12:25:02;3.00;;;2.03;;
8702;SDS011;9002;42.708;23.186;2024-03-25T12:27:29;3.25;;;2.30;;
8702;SDS011;9002;42.708;23.186;2024-03-25T12:29:59;3.88;;;2.25;;
8702;SDS011;9002;42.708;23.186;2024-03-25T12:32:32;3.10;;;2.20;;
8702;SDS011;9002;42.708;23.186;2024-03-25T12:35:02;2.03;;;1.50;;
8702;SDS011;9002;42.708;23.186;2024-03-25T12:37:28;3.97;;;1.98;;
8702;SDS011;9002;42.708;23.186;2024-03-25T12:39:54;2.55;;;2.35;;
8702;SDS011;9002;42.708;23.186;2024-03-25T12:42:21;2.83;;;1.88;;
8702;SDS011;9002;42.708;23.186;2024-03-25T12:44:47;4.07;;;2.50;;
8702;SDS011;9002;42.708;23.186;2024-03-25T12:47:13;4.57;;;2.28;;
8702;SDS011;9002;42.708;23.186;2024-03-25T12:49:39;3.85;;;1.92;;
8702;SDS011;9002;42.708;23.186;2024-03-25T12:52:05;2.63;;;2.03;;
8702;SDS011;9002;42.708;23.186;2024-03-25T12:54:32;4.05;;;2.85;;
8702;SDS011;9002;42.708;23.186;2024-03-25T12:56:58;3.28;;;2.20;;
8702;SDS011;9002;42.708;23.186;2024-03-25T12:59:25;2.78;;;2.15;;
8702;SDS011;9002;42.708;23.186;2024-03-25T13:01:51;3.40;;;1.92;;
8702;SDS011;9002;42.708;23.186;2024-03-25T13:04:18;3.97;;;2.05;;
8702;SDS011;9002;42.708;23.186;2024-03-25T13:06:43;2.55;;;1.92;;
8702;SDS011;9002;42.708;23.186;2024-03-25T13:09:09;2.80;;;1.80;;
8702;SDS011;9002;42.708;23.186;2024-03-25T13:11:36;4.43;;;2.60;;
8702;SDS011;9002;42.708;23.186;2024-03-25T13:14:03;3.25;;;2.25;;
8702;SDS011;9002;42.708;23.186;2024-03-25T13:16:30;3.13;;;2.40;;
8702;SDS011;9002;42.708;23.186;2024-03-25T13:18:56;6.25;;;2.70;;
8702;SDS011;9002;42.708;23.186;2024-03-25T13:21:22;4.38;;;1.92;;
8702;SDS011;9002;42.708;23.186;2024-03-25T13:23:48;3.30;;;2.50;;
8702;SDS011;9002;42.708;23.186;2024-03-25T13:26:14;4.35;;;2.63;;
8702;SDS011;9002;42.708;23.186;2024-03-25T13:28:40;5.22;;;2.65;;
8702;SDS011;9002;42.708;23.186;2024-03-25T13:31:06;4.25;;;2.60;;
8702;SDS011;9002;42.708;23.186;2024-03-25T13:33:36;3.17;;;2.10;;
8702;SDS011;9002;42.708;23.186;2024-03-25T13:36:02;3.83;;;2.13;;
8702;SDS011;9002;42.708;23.186;2024-03-25T13:38:29;3.40;;;2.10;;
8702;SDS011;9002;42.708;23.186;2024-03-25T13:40:55;3.13;;;1.70;;
8702;SDS011;9002;42.708;23.186;2024-03-25T13:43:21;3.08;;;1.70;;
8702;SDS011;9002;42.708;23.186;2024-03-25T13:45:47;2.55;;;2.35;;
8702;SDS011;9002;42.708;23.186;2024-03-25T13:48:19;3.55;;;2.00;;
8702;SDS011;9002;42.708;23.186;2024-03-25T13:50:52;2.15;;;1.42;;
8702;SDS011;9002;42.708;23.186;2024-03-25T13:53:19;2.42;;;1.30;;
8702;SDS011;9002;42.708;23.186;2024-03-25T13:55:45;3.42;;;2.53;;
8702;SDS011;9002;42.708;23.186;2024-03-25T13:58:11;7.65;;;1.83;;
8702;SDS011;9002;42.708;23.186;2024-03-25T14:00:36;1.77;;;1.05;;
8702;SDS011;9002;42.708;23.186;2024-03-25T14:03:03;1.92;;;1.00;;
8702;SDS011;9002;42.708;23.186;2024-03-25T14:07:58;1.88;;;0.73;;
8702;SDS011;9002;42.708;23.186;2024-03-25T14:12:56;2.30;;;1.33;;
8702;SDS011;9002;42.708;23.186;2024-03-25T14:15:22;2.85;;;1.00;;
8702;SDS011;9002;42.708;23.186;2024-03-25T14:17:50;1.45;;;1.02;;
8702;SDS011;9002;42.708;23.186;2024-03-25T14:20:16;3.55;;;1.25;;
8702;SDS011;9002;42.708;23.186;2024-03-25T14:22:42;2.10;;;1.00;;
8702;SDS011;9002;42.708;23.186;2024-03-25T14:27:55;1.30;;;0.60;;
8702;SDS011;9002;42.708;23.186;2024-03-25T14:30:23;1.92;;;1.08;;
8702;SDS011;9002;42.708;23.186;2024-03-25T14:32:55;2.03;;;1.73;;
8702;SDS011;9002;42.708;23.186;2024-03-25T14:35:26;0.95;;;0.52;;
8702;SDS011;9002;42.708;23.186;2024-03-25T14:37:51;1.40;;;0.95;;
8702;SDS011;9002;42.708;23.186;2024-03-25T14:40:17;1.52;;;0.90;;
8702;SDS011;9002;42.708;23.186;2024-03-25T14:42:45;4.25;;;1.38;;
8702;SDS011;9002;42.708;23.186;2024-03-25T14:45:11;2.35;;;1.00;;
8702;SDS011;9002;42.708;23.186;2024-03-25T14:47:37;1.20;;;1.05;;
8702;SDS011;9002;42.708;23.186;2024-03-25T14:50:03;2.05;;;1.10;;
8702;SDS011;9002;42.708;23.186;2024-03-25T14:52:29;2.55;;;1.50;;
8702;SDS011;9002;42.708;23.186;2024-03-25T14:54:55;2.72;;;1.50;;
8702;SDS011;9002;42.708;23.186;2024-03-25T14:57:21;2.50;;;2.08;;
8702;SDS011;9002;42.708;23.186;2024-03-25T14:59:49;5.43;;;1.55;;
8702;SDS011;9002;42.708;23.186;2024-03-25T15:02:14;2.08;;;1.23;;
8702;SDS011;9002;42.708;23.186;2024-03-25T15:04:40;1.90;;;1.38;;
8702;SDS011;9002;42.708;23.186;2024-03-25T15:07:07;3.38;;;1.92;;
8702;SDS011;9002;42.708;23.186;2024-03-25T15:12:06;2.53;;;1.50;;
8702;SDS011;9002;42.708;23.186;2024-03-25T15:14:32;3.10;;;2.08;;
8702;SDS011;9002;42.708;23.186;2024-03-25T15:16:59;1.77;;;1.13;;
8702;SDS011;9002;42.708;23.186;2024-03-25T15:19:25;3.38;;;1.63;;
8702;SDS011;9002;42.708;23.186;2024-03-25T15:21:51;2.63;;;1.58;;
8702;SDS011;9002;42.708;23.186;2024-03-25T15:24:18;3.00;;;1.88;;
8702;SDS011;9002;42.708;23.186;2024-03-25T15:26:44;3.88;;;1.90;;
8702;SDS011;9002;42.708;23.186;2024-03-25T15:29:10;3.58;;;2.03;;
8702;SDS011;9002;42.708;23.186;2024-03-25T15:31:36;4.38;;;2.25;;
8702;SDS011;9002;42.708;23.186;2024-03-25T15:34:03;4.50;;;1.42;;
8702;SDS011;9002;42.708;23.186;2024-03-25T15:36:29;2.15;;;1.77;;
8702;SDS011;9002;42.708;23.186;2024-03-25T15:38:56;3.17;;;2.05;;
8702;SDS011;9002;42.708;23.186;2024-03-25T15:41:22;2.25;;;1.45;;
8702;SDS011;9002;42.708;23.186;2024-03-25T15:43:50;2.25;;;1.55;;
8702;SDS011;9002;42.708;23.186;2024-03-25T15:46:17;2.42;;;1.13;;
8702;SDS011;9002;42.708;23.186;2024-03-25T15:48:45;2.08;;;1.25;;
8702;SDS011;9002;42.708;23.186;2024-03-25T15:51:18;2.92;;;1.35;;
8702;SDS011;9002;42.708;23.186;2024-03-25T15:53:45;5.05;;;1.95;;
8702;SDS011;9002;42.708;23.186;2024-03-25T15:56:11;2.13;;;1.63;;
8702;SDS011;9002;42.708;23.186;2024-03-25T15:58:37;3.40;;;1.58;;
8702;SDS011;9002;42.708;23.186;2024-03-25T16:01:04;2.53;;;1.85;;
8702;SDS011;9002;42.708;23.186;2024-03-25T16:03:33;3.90;;;1.85;;
8702;SDS011;9002;42.708;23.186;2024-03-25T16:08:27;4.35;;;2.60;;
8702;SDS011;9002;42.708;23.186;2024-03-25T16:10:54;3.47;;;2.08;;
8702;SDS011;9002;42.708;23.186;2024-03-25T16:13:20;7.15;;;4.07;;
8702;SDS011;9002;42.708;23.186;2024-03-25T16:15:46;9.48;;;4.68;;
8702;SDS011;9002;42.708;23.186;2024-03-25T16:18:27;5.25;;;2.97;;
8702;SDS011;9002;42.708;23.186;2024-03-25T16:20:53;4.65;;;2.50;;
8702;SDS011;9002;42.708;23.186;2024-03-25T16:23:19;5.18;;;2.95;;
8702;SDS011;9002;42.708;23.186;2024-03-25T16:25:47;7.53;;;3.03;;